sensor_id;sensor_type;location;lat;lon;timestamp;P1;durP1;ratioP1;P2;durP2;ratioP2
35550;SDS011;21655;46.056;13.616;2023-03-14T00:00:59;31.35;;;17.27;;
35550;SDS011;21655;46.056;13.616;2023-03-14T00:03:32;31.40;;;17.02;;
35550;SDS011;21655;46.056;13.616;2023-03-14T00:06:01;39.60;;;18.38;;
35550;SDS011;21655;46.056;13.616;2023-03-14T00:08:28;36.22;;;18.25;;
35550;SDS011;21655;46.056;13.616;2023-03-14T00:10:53;36.38;;;17.13;;
35550;SDS011;21655;46.056;13.616;2023-03-14T00:13:19;32.20;;;17.45;;
35550;SDS011;21655;46.056;13.616;2023-03-14T00:15:44;32.80;;;17.88;;
35550;SDS011;21655;46.056;13.616;2023-03-14T00:18:09;35.88;;;18.65;;
35550;SDS011;21655;46.056;13.616;2023-03-14T00:20:35;35.70;;;18.05;;
35550;SDS011;21655;46.056;13.616;2023-03-14T00:23:00;32.10;;;17.73;;
35550;SDS011;21655;46.056;13.616;2023-03-14T00:25:27;37.63;;;18.10;;
35550;SDS011;21655;46.056;13.616;2023-03-14T00:27:53;31.65;;;16.08;;
35550;SDS011;21655;46.056;13.616;2023-03-14T00:30:18;35.35;;;17.73;;
35550;SDS011;21655;46.056;13.616;2023-03-14T00:32:44;29.52;;;14.55;;
35550;SDS011;21655;46.056;13.616;2023-03-14T00:35:10;31.02;;;15.10;;
35550;SDS011;21655;46.056;13.616;2023-03-14T00:37:35;32.65;;;15.80;;
35550;SDS011;21655;46.056;13.616;2023-03-14T00:40:01;29.65;;;15.43;;
35550;SDS011;21655;46.056;13.616;2023-03-14T00:42:26;23.63;;;14.00;;
35550;SDS011;21655;46.056;13.616;2023-03-14T00:44:52;31.05;;;15.35;;
35550;SDS011;21655;46.056;13.616;2023-03-14T00:47:17;35.10;;;15.13;;
35550;SDS011;21655;46.056;13.616;2023-03-14T00:49:43;30.35;;;15.43;;
35550;SDS011;21655;46.056;13.616;2023-03-14T00:52:09;32.05;;;15.13;;
35550;SDS011;21655;46.056;13.616;2023-03-14T00:54:34;36.15;;;15.88;;
35550;SDS011;21655;46.056;13.616;2023-03-14T00:57:00;31.65;;;15.82;;
35550;SDS011;21655;46.056;13.616;2023-03-14T00:59:25;32.35;;;15.95;;
35550;SDS011;21655;46.056;13.616;2023-03-14T01:01:51;30.55;;;15.88;;
35550;SDS011;21655;46.056;13.616;2023-03-14T01:04:16;28.38;;;15.25;;
35550;SDS011;21655;46.056;13.616;2023-03-14T01:06:42;26.77;;;15.55;;
35550;SDS011;21655;46.056;13.616;2023-03-14T01:09:07;30.85;;;15.10;;
35550;SDS011;21655;46.056;13.616;2023-03-14T01:11:34;29.33;;;16.73;;
35550;SDS011;21655;46.056;13.616;2023-03-14T01:14:00;31.35;;;17.42;;
35550;SDS011;21655;46.056;13.616;2023-03-14T01:16:26;30.88;;;17.77;;
35550;SDS011;21655;46.056;13.616;2023-03-14T01:18:53;31.23;;;17.98;;
35550;SDS011;21655;46.056;13.616;2023-03-14T01:21:20;39.47;;;18.48;;
35550;SDS011;21655;46.056;13.616;2023-03-14T01:23:47;33.95;;;18.40;;
35550;SDS011;21655;46.056;13.616;2023-03-14T01:26:15;28.48;;;17.65;;
35550;SDS011;21655;46.056;13.616;2023-03-14T01:28:44;29.65;;;18.83;;
35550;SDS011;21655;46.056;13.616;2023-03-14T01:31:10;32.47;;;19.08;;
35550;SDS011;21655;46.056;13.616;2023-03-14T01:33:35;31.85;;;17.65;;
35550;SDS011;21655;46.056;13.616;2023-03-14T01:36:01;34.03;;;19.27;;
35550;SDS011;21655;46.056;13.616;2023-03-14T01:38:30;30.17;;;18.80;;
35550;SDS011;21655;46.056;13.616;2023-03-14T01:40:57;33.55;;;18.33;;
35550;SDS011;21655;46.056;13.616;2023-03-14T01:43:23;35.78;;;19.25;;
35550;SDS011;21655;46.056;13.616;2023-03-14T01:51:16;32.95;;;17.60;;
35550;SDS011;21655;46.056;13.616;2023-03-14T01:53:47;28.73;;;17.85;;
35550;SDS011;21655;46.056;13.616;2023-03-14T01:56:15;38.63;;;18.13;;
35550;SDS011;21655;46.056;13.616;2023-03-14T01:58:43;30.67;;;16.33;;
35550;SDS011;21655;46.056;13.616;2023-03-14T02:01:13;36.95;;;18.35;;
35550;SDS011;21655;46.056;13.616;2023-03-14T02:03:46;32.30;;;17.25;;
35550;SDS011;21655;46.056;13.616;2023-03-14T02:06:19;29.15;;;17.08;;
35550;SDS011;21655;46.056;13.616;2023-03-14T02:08:50;28.25;;;16.50;;
35550;SDS011;21655;46.056;13.616;2023-03-14T02:11:16;28.90;;;16.55;;
35550;SDS011;21655;46.056;13.616;2023-03-14T02:13:43;28.58;;;16.67;;
35550;SDS011;21655;46.056;13.616;2023-03-14T02:16:09;28.42;;;16.92;;
35550;SDS011;21655;46.056;13.616;2023-03-14T02:18:35;30.00;;;17.13;;
35550;SDS011;21655;46.056;13.616;2023-03-14T02:21:03;27.20;;;16.73;;
35550;SDS011;21655;46.056;13.616;2023-03-14T02:26:38;30.42;;;18.17;;
35550;SDS011;21655;46.056;13.616;2023-03-14T02:29:08;35.00;;;18.77;;
35550;SDS011;21655;46.056;13.616;2023-03-14T02:31:34;30.67;;;17.83;;
35550;SDS011;21655;46.056;13.616;2023-03-14T02:34:00;31.67;;;18.42;;
35550;SDS011;21655;46.056;13.616;2023-03-14T02:36:26;29.83;;;18.58;;
35550;SDS011;21655;46.056;13.616;2023-03-14T02:41:44;31.23;;;17.63;;
35550;SDS011;21655;46.056;13.616;2023-03-14T02:44:11;32.00;;;17.35;;
35550;SDS011;21655;46.056;13.616;2023-03-14T02:46:36;28.55;;;16.92;;
35550;SDS011;21655;46.056;13.616;2023-03-14T02:49:03;31.35;;;17.08;;
35550;SDS011;21655;46.056;13.616;2023-03-14T02:51:32;32.45;;;16.58;;
35550;SDS011;21655;46.056;13.616;2023-03-14T02:53:58;29.35;;;17.33;;
35550;SDS011;21655;46.056;13.616;2023-03-14T02:56:24;30.08;;;16.95;;
35550;SDS011;21655;46.056;13.616;2023-03-14T02:58:49;31.33;;;17.58;;
35550;SDS011;21655;46.056;13.616;2023-03-14T03:01:15;28.60;;;15.93;;
35550;SDS011;21655;46.056;13.616;2023-03-14T03:03:40;30.52;;;16.58;;
35550;SDS011;21655;46.056;13.616;2023-03-14T03:06:06;29.40;;;18.00;;
35550;SDS011;21655;46.056;13.616;2023-03-14T03:08:32;35.15;;;20.05;;
35550;SDS011;21655;46.056;13.616;2023-03-14T03:10:58;32.92;;;20.83;;
35550;SDS011;21655;46.056;13.616;2023-03-14T03:13:24;32.30;;;19.95;;
35550;SDS011;21655;46.056;13.616;2023-03-14T03:15:50;33.45;;;20.77;;
35550;SDS011;21655;46.056;13.616;2023-03-14T03:18:15;33.80;;;21.45;;
35550;SDS011;21655;46.056;13.616;2023-03-14T03:20:41;35.33;;;19.63;;
35550;SDS011;21655;46.056;13.616;2023-03-14T03:23:06;33.58;;;20.05;;
35550;SDS011;21655;46.056;13.616;2023-03-14T03:25:32;36.47;;;20.23;;
35550;SDS011;21655;46.056;13.616;2023-03-14T03:27:58;34.95;;;19.65;;
35550;SDS011;21655;46.056;13.616;2023-03-14T03:30:23;35.33;;;19.50;;
35550;SDS011;21655;46.056;13.616;2023-03-14T03:32:49;35.28;;;18.23;;
35550;SDS011;21655;46.056;13.616;2023-03-14T03:35:14;27.65;;;17.85;;
35550;SDS011;21655;46.056;13.616;2023-03-14T03:37:40;30.80;;;17.80;;
35550;SDS011;21655;46.056;13.616;2023-03-14T03:40:06;32.17;;;19.25;;
35550;SDS011;21655;46.056;13.616;2023-03-14T03:42:34;35.67;;;19.13;;
35550;SDS011;21655;46.056;13.616;2023-03-14T03:44:59;30.80;;;19.02;;
35550;SDS011;21655;46.056;13.616;2023-03-14T03:47:26;31.70;;;18.73;;
35550;SDS011;21655;46.056;13.616;2023-03-14T03:49:52;35.10;;;18.92;;
35550;SDS011;21655;46.056;13.616;2023-03-14T03:52:17;31.27;;;18.65;;
35550;SDS011;21655;46.056;13.616;2023-03-14T03:54:43;33.33;;;19.02;;
35550;SDS011;21655;46.056;13.616;2023-03-14T03:57:08;36.80;;;19.35;;
35550;SDS011;21655;46.056;13.616;2023-03-14T03:59:34;33.83;;;19.88;;
35550;SDS011;21655;46.056;13.616;2023-03-14T04:01:59;30.88;;;18.75;;
35550;SDS011;21655;46.056;13.616;2023-03-14T04:04:25;35.45;;;20.13;;
35550;SDS011;21655;46.056;13.616;2023-03-14T04:06:51;37.38;;;20.00;;
35550;SDS011;21655;46.056;13.616;2023-03-14T04:09:16;38.50;;;21.38;;
35550;SDS011;21655;46.056;13.616;2023-03-14T04:11:42;36.70;;;21.13;;
35550;SDS011;21655;46.056;13.616;2023-03-14T04:14:07;36.00;;;21.08;;
35550;SDS011;21655;46.056;13.616;2023-03-14T04:16:33;38.05;;;21.02;;
35550;SDS011;21655;46.056;13.616;2023-03-14T04:18:59;34.63;;;19.67;;
35550;SDS011;21655;46.056;13.616;2023-03-14T04:21:24;41.45;;;20.58;;
35550;SDS011;21655;46.056;13.616;2023-03-14T04:23:50;39.28;;;22.17;;
35550;SDS011;21655;46.056;13.616;2023-03-14T04:26:15;33.90;;;19.05;;
35550;SDS011;21655;46.056;13.616;2023-03-14T04:28:41;35.00;;;20.85;;
35550;SDS011;21655;46.056;13.616;2023-03-14T04:31:08;33.45;;;19.95;;
35550;SDS011;21655;46.056;13.616;2023-03-14T04:33:35;29.75;;;19.20;;
35550;SDS011;21655;46.056;13.616;2023-03-14T04:36:02;31.55;;;20.08;;
35550;SDS011;21655;46.056;13.616;2023-03-14T04:38:28;32.17;;;20.67;;
35550;SDS011;21655;46.056;13.616;2023-03-14T04:40:54;38.58;;;20.95;;
35550;SDS011;21655;46.056;13.616;2023-03-14T04:43:19;35.95;;;20.73;;
35550;SDS011;21655;46.056;13.616;2023-03-14T04:45:45;38.60;;;21.52;;
35550;SDS011;21655;46.056;13.616;2023-03-14T04:48:10;36.78;;;22.23;;
35550;SDS011;21655;46.056;13.616;2023-03-14T04:50:37;37.97;;;22.42;;
35550;SDS011;21655;46.056;13.616;2023-03-14T04:53:02;34.00;;;21.80;;
35550;SDS011;21655;46.056;13.616;2023-03-14T04:55:28;30.70;;;20.60;;
35550;SDS011;21655;46.056;13.616;2023-03-14T04:57:53;44.60;;;22.35;;
35550;SDS011;21655;46.056;13.616;2023-03-14T05:00:19;34.60;;;21.45;;
35550;SDS011;21655;46.056;13.616;2023-03-14T05:02:45;39.60;;;21.65;;
35550;SDS011;21655;46.056;13.616;2023-03-14T05:05:10;38.42;;;21.70;;
35550;SDS011;21655;46.056;13.616;2023-03-14T05:07:36;32.08;;;20.95;;
35550;SDS011;21655;46.056;13.616;2023-03-14T05:10:01;39.15;;;22.48;;
35550;SDS011;21655;46.056;13.616;2023-03-14T05:12:27;36.38;;;21.27;;
35550;SDS011;21655;46.056;13.616;2023-03-14T05:14:53;33.28;;;19.65;;
35550;SDS011;21655;46.056;13.616;2023-03-14T05:17:18;32.35;;;18.98;;
35550;SDS011;21655;46.056;13.616;2023-03-14T05:19:44;31.77;;;17.60;;
35550;SDS011;21655;46.056;13.616;2023-03-14T05:22:10;30.73;;;17.25;;
35550;SDS011;21655;46.056;13.616;2023-03-14T05:24:36;35.13;;;18.35;;
35550;SDS011;21655;46.056;13.616;2023-03-14T05:27:02;29.88;;;17.67;;
35550;SDS011;21655;46.056;13.616;2023-03-14T05:29:28;34.58;;;19.13;;
35550;SDS011;21655;46.056;13.616;2023-03-14T05:31:53;29.35;;;19.10;;
35550;SDS011;21655;46.056;13.616;2023-03-14T05:34:19;32.63;;;18.77;;
35550;SDS011;21655;46.056;13.616;2023-03-14T05:36:44;28.67;;;19.00;;
35550;SDS011;21655;46.056;13.616;2023-03-14T05:39:10;31.05;;;19.35;;
35550;SDS011;21655;46.056;13.616;2023-03-14T05:41:35;28.80;;;18.20;;
35550;SDS011;21655;46.056;13.616;2023-03-14T05:44:00;36.00;;;18.75;;
35550;SDS011;21655;46.056;13.616;2023-03-14T05:46:26;26.83;;;16.23;;
35550;SDS011;21655;46.056;13.616;2023-03-14T05:48:51;29.02;;;15.70;;
35550;SDS011;21655;46.056;13.616;2023-03-14T05:51:17;27.77;;;16.02;;
35550;SDS011;21655;46.056;13.616;2023-03-14T05:53:42;27.13;;;15.85;;
35550;SDS011;21655;46.056;13.616;2023-03-14T05:56:08;24.67;;;15.38;;
35550;SDS011;21655;46.056;13.616;2023-03-14T05:58:33;24.10;;;15.27;;
35550;SDS011;21655;46.056;13.616;2023-03-14T06:01:02;26.80;;;15.85;;
35550;SDS011;21655;46.056;13.616;2023-03-14T06:03:29;26.83;;;16.55;;
35550;SDS011;21655;46.056;13.616;2023-03-14T06:05:54;23.85;;;15.35;;
35550;SDS011;21655;46.056;13.616;2023-03-14T06:08:20;31.80;;;16.02;;
35550;SDS011;21655;46.056;13.616;2023-03-14T06:10:45;25.58;;;16.83;;
35550;SDS011;21655;46.056;13.616;2023-03-14T06:13:11;26.08;;;16.77;;
35550;SDS011;21655;46.056;13.616;2023-03-14T06:15:36;26.70;;;16.75;;
35550;SDS011;21655;46.056;13.616;2023-03-14T06:18:02;28.83;;;18.05;;
35550;SDS011;21655;46.056;13.616;2023-03-14T06:20:28;33.47;;;19.33;;
35550;SDS011;21655;46.056;13.616;2023-03-14T06:22:53;31.92;;;20.45;;
35550;SDS011;21655;46.056;13.616;2023-03-14T06:25:19;32.97;;;19.48;;
35550;SDS011;21655;46.056;13.616;2023-03-14T06:27:44;28.85;;;17.30;;
35550;SDS011;21655;46.056;13.616;2023-03-14T06:30:10;29.50;;;16.02;;
35550;SDS011;21655;46.056;13.616;2023-03-14T06:32:36;25.35;;;15.05;;
35550;SDS011;21655;46.056;13.616;2023-03-14T06:35:02;28.67;;;16.70;;
35550;SDS011;21655;46.056;13.616;2023-03-14T06:37:28;28.42;;;16.33;;
35550;SDS011;21655;46.056;13.616;2023-03-14T06:39:54;28.90;;;15.80;;
35550;SDS011;21655;46.056;13.616;2023-03-14T06:42:20;25.27;;;15.63;;
35550;SDS011;21655;46.056;13.616;2023-03-14T06:44:46;28.77;;;15.07;;
35550;SDS011;21655;46.056;13.616;2023-03-14T06:47:11;27.08;;;15.48;;
35550;SDS011;21655;46.056;13.616;2023-03-14T06:49:37;29.58;;;18.52;;
35550;SDS011;21655;46.056;13.616;2023-03-14T06:52:02;27.55;;;17.33;;
35550;SDS011;21655;46.056;13.616;2023-03-14T06:54:28;27.92;;;17.25;;
35550;SDS011;21655;46.056;13.616;2023-03-14T06:56:54;28.73;;;15.98;;
35550;SDS011;21655;46.056;13.616;2023-03-14T06:59:19;29.50;;;14.80;;
35550;SDS011;21655;46.056;13.616;2023-03-14T07:01:45;24.90;;;14.85;;
35550;SDS011;21655;46.056;13.616;2023-03-14T07:04:10;25.45;;;14.95;;
35550;SDS011;21655;46.056;13.616;2023-03-14T07:06:36;25.80;;;15.32;;
35550;SDS011;21655;46.056;13.616;2023-03-14T07:09:02;30.15;;;14.95;;
35550;SDS011;21655;46.056;13.616;2023-03-14T07:11:27;24.85;;;13.13;;
35550;SDS011;21655;46.056;13.616;2023-03-14T07:13:53;29.17;;;13.98;;
35550;SDS011;21655;46.056;13.616;2023-03-14T07:16:18;29.45;;;14.20;;
35550;SDS011;21655;46.056;13.616;2023-03-14T07:18:44;25.63;;;13.27;;
35550;SDS011;21655;46.056;13.616;2023-03-14T07:21:10;25.60;;;13.80;;
35550;SDS011;21655;46.056;13.616;2023-03-14T07:23:37;23.08;;;12.48;;
35550;SDS011;21655;46.056;13.616;2023-03-14T07:26:03;22.40;;;13.38;;
35550;SDS011;21655;46.056;13.616;2023-03-14T07:28:29;24.88;;;13.43;;
35550;SDS011;21655;46.056;13.616;2023-03-14T07:30:54;19.25;;;11.82;;
35550;SDS011;21655;46.056;13.616;2023-03-14T07:33:20;23.75;;;12.25;;
35550;SDS011;21655;46.056;13.616;2023-03-14T07:35:47;19.73;;;11.63;;
35550;SDS011;21655;46.056;13.616;2023-03-14T07:38:13;20.52;;;11.48;;
35550;SDS011;21655;46.056;13.616;2023-03-14T07:40:39;24.17;;;12.30;;
35550;SDS011;21655;46.056;13.616;2023-03-14T07:43:04;22.25;;;13.95;;
35550;SDS011;21655;46.056;13.616;2023-03-14T07:45:30;27.65;;;13.32;;
35550;SDS011;21655;46.056;13.616;2023-03-14T07:47:55;23.98;;;12.90;;
35550;SDS011;21655;46.056;13.616;2023-03-14T07:50:22;26.92;;;13.13;;
35550;SDS011;21655;46.056;13.616;2023-03-14T07:52:49;31.27;;;13.27;;
35550;SDS011;21655;46.056;13.616;2023-03-14T07:55:14;25.83;;;12.57;;
35550;SDS011;21655;46.056;13.616;2023-03-14T07:57:40;23.85;;;11.90;;
35550;SDS011;21655;46.056;13.616;2023-03-14T08:00:06;25.23;;;10.90;;
35550;SDS011;21655;46.056;13.616;2023-03-14T08:02:32;23.70;;;11.60;;
35550;SDS011;21655;46.056;13.616;2023-03-14T08:04:58;23.40;;;10.82;;
35550;SDS011;21655;46.056;13.616;2023-03-14T08:07:23;22.73;;;11.38;;
35550;SDS011;21655;46.056;13.616;2023-03-14T08:09:49;26.65;;;12.50;;
35550;SDS011;21655;46.056;13.616;2023-03-14T08:12:14;23.05;;;11.88;;
35550;SDS011;21655;46.056;13.616;2023-03-14T08:14:41;24.13;;;12.35;;
35550;SDS011;21655;46.056;13.616;2023-03-14T08:17:06;26.08;;;12.25;;
35550;SDS011;21655;46.056;13.616;2023-03-14T08:19:33;23.27;;;11.48;;
35550;SDS011;21655;46.056;13.616;2023-03-14T08:21:58;24.35;;;13.32;;
35550;SDS011;21655;46.056;13.616;2023-03-14T08:24:24;26.73;;;13.85;;
35550;SDS011;21655;46.056;13.616;2023-03-14T08:26:50;23.25;;;12.65;;
35550;SDS011;21655;46.056;13.616;2023-03-14T08:29:15;29.88;;;14.02;;
35550;SDS011;21655;46.056;13.616;2023-03-14T08:31:40;21.83;;;13.23;;
35550;SDS011;21655;46.056;13.616;2023-03-14T08:34:06;24.33;;;13.38;;
35550;SDS011;21655;46.056;13.616;2023-03-14T08:36:32;28.40;;;12.30;;
35550;SDS011;21655;46.056;13.616;2023-03-14T08:38:58;28.02;;;12.73;;
35550;SDS011;21655;46.056;13.616;2023-03-14T08:41:24;25.05;;;12.55;;
35550;SDS011;21655;46.056;13.616;2023-03-14T08:43:49;25.00;;;13.45;;
35550;SDS011;21655;46.056;13.616;2023-03-14T08:46:15;24.35;;;14.07;;
35550;SDS011;21655;46.056;13.616;2023-03-14T08:48:40;24.55;;;12.75;;
35550;SDS011;21655;46.056;13.616;2023-03-14T08:53:39;31.30;;;14.70;;
35550;SDS011;21655;46.056;13.616;2023-03-14T08:56:05;26.52;;;15.38;;
35550;SDS011;21655;46.056;13.616;2023-03-14T08:58:31;26.98;;;15.32;;
35550;SDS011;21655;46.056;13.616;2023-03-14T09:00:57;24.15;;;14.52;;
35550;SDS011;21655;46.056;13.616;2023-03-14T09:03:23;28.73;;;15.07;;
35550;SDS011;21655;46.056;13.616;2023-03-14T09:05:50;32.97;;;14.35;;
35550;SDS011;21655;46.056;13.616;2023-03-14T09:08:16;27.08;;;13.07;;
35550;SDS011;21655;46.056;13.616;2023-03-14T09:10:41;40.63;;;20.40;;
35550;SDS011;21655;46.056;13.616;2023-03-14T09:13:07;31.35;;;16.73;;
35550;SDS011;21655;46.056;13.616;2023-03-14T09:15:32;33.88;;;16.67;;
35550;SDS011;21655;46.056;13.616;2023-03-14T09:17:58;26.00;;;15.23;;
35550;SDS011;21655;46.056;13.616;2023-03-14T09:20:23;27.60;;;14.50;;
35550;SDS011;21655;46.056;13.616;2023-03-14T09:22:49;25.02;;;14.55;;
35550;SDS011;21655;46.056;13.616;2023-03-14T09:25:15;27.17;;;13.98;;
35550;SDS011;21655;46.056;13.616;2023-03-14T09:27:40;24.55;;;12.32;;
35550;SDS011;21655;46.056;13.616;2023-03-14T09:30:06;28.77;;;12.85;;
35550;SDS011;21655;46.056;13.616;2023-03-14T09:32:32;29.70;;;16.20;;
35550;SDS011;21655;46.056;13.616;2023-03-14T09:34:57;33.33;;;14.85;;
35550;SDS011;21655;46.056;13.616;2023-03-14T09:37:23;22.45;;;14.18;;
35550;SDS011;21655;46.056;13.616;2023-03-14T09:39:48;26.65;;;14.35;;
35550;SDS011;21655;46.056;13.616;2023-03-14T09:42:17;26.48;;;14.18;;
35550;SDS011;21655;46.056;13.616;2023-03-14T09:44:53;28.00;;;14.98;;
35550;SDS011;21655;46.056;13.616;2023-03-14T09:47:24;25.73;;;16.80;;
35550;SDS011;21655;46.056;13.616;2023-03-14T09:49:51;31.15;;;16.92;;
35550;SDS011;21655;46.056;13.616;2023-03-14T09:52:24;28.08;;;16.08;;
35550;SDS011;21655;46.056;13.616;2023-03-14T09:54:59;34.50;;;16.25;;
35550;SDS011;21655;46.056;13.616;2023-03-14T09:57:27;31.30;;;15.75;;
35550;SDS011;21655;46.056;13.616;2023-03-14T09:59:58;29.35;;;17.25;;
35550;SDS011;21655;46.056;13.616;2023-03-14T10:02:37;32.70;;;17.10;;
35550;SDS011;21655;46.056;13.616;2023-03-14T10:05:05;30.23;;;15.68;;
35550;SDS011;21655;46.056;13.616;2023-03-14T10:07:38;28.98;;;14.68;;
35550;SDS011;21655;46.056;13.616;2023-03-14T10:10:23;26.65;;;14.75;;
35550;SDS011;21655;46.056;13.616;2023-03-14T10:12:57;29.40;;;15.77;;
35550;SDS011;21655;46.056;13.616;2023-03-14T10:15:31;30.23;;;16.75;;
35550;SDS011;21655;46.056;13.616;2023-03-14T10:17:59;35.80;;;15.63;;
35550;SDS011;21655;46.056;13.616;2023-03-14T10:20:33;32.42;;;11.88;;
35550;SDS011;21655;46.056;13.616;2023-03-14T10:23:01;25.60;;;12.63;;
35550;SDS011;21655;46.056;13.616;2023-03-14T10:25:31;28.15;;;13.93;;
35550;SDS011;21655;46.056;13.616;2023-03-14T10:27:58;30.17;;;14.50;;
35550;SDS011;21655;46.056;13.616;2023-03-14T10:30:29;32.95;;;18.88;;
35550;SDS011;21655;46.056;13.616;2023-03-14T10:33:15;30.55;;;18.08;;
35550;SDS011;21655;46.056;13.616;2023-03-14T10:35:44;29.08;;;13.35;;
35550;SDS011;21655;46.056;13.616;2023-03-14T10:38:15;42.70;;;21.38;;
35550;SDS011;21655;46.056;13.616;2023-03-14T10:40:51;45.58;;;26.00;;
35550;SDS011;21655;46.056;13.616;2023-03-14T10:43:19;46.08;;;25.80;;
35550;SDS011;21655;46.056;13.616;2023-03-14T10:45:55;46.40;;;25.60;;
35550;SDS011;21655;46.056;13.616;2023-03-14T10:53:22;41.35;;;22.63;;
35550;SDS011;21655;46.056;13.616;2023-03-14T10:55:47;35.22;;;18.85;;
35550;SDS011;21655;46.056;13.616;2023-03-14T10:58:18;36.10;;;19.08;;
35550;SDS011;21655;46.056;13.616;2023-03-14T11:00:48;50.58;;;26.95;;
35550;SDS011;21655;46.056;13.616;2023-03-14T11:03:18;50.78;;;28.08;;
35550;SDS011;21655;46.056;13.616;2023-03-14T11:13:37;44.40;;;24.30;;
35550;SDS011;21655;46.056;13.616;2023-03-14T11:16:12;42.00;;;24.10;;
35550;SDS011;21655;46.056;13.616;2023-03-14T11:25:02;37.15;;;21.40;;
35550;SDS011;21655;46.056;13.616;2023-03-14T11:27:40;31.98;;;18.20;;
35550;SDS011;21655;46.056;13.616;2023-03-14T11:30:15;33.15;;;15.60;;
35550;SDS011;21655;46.056;13.616;2023-03-14T11:35:28;30.38;;;14.98;;
35550;SDS011;21655;46.056;13.616;2023-03-14T11:40:51;34.13;;;16.80;;
35550;SDS011;21655;46.056;13.616;2023-03-14T11:46:21;35.42;;;18.45;;
35550;SDS011;21655;46.056;13.616;2023-03-14T11:51:21;39.40;;;22.52;;
35550;SDS011;21655;46.056;13.616;2023-03-14T12:01:59;27.02;;;12.20;;
35550;SDS011;21655;46.056;13.616;2023-03-14T12:07:19;27.08;;;14.30;;
35550;SDS011;21655;46.056;13.616;2023-03-14T12:09:49;28.85;;;13.07;;
35550;SDS011;21655;46.056;13.616;2023-03-14T12:12:19;26.50;;;11.80;;
35550;SDS011;21655;46.056;13.616;2023-03-14T12:14:58;24.10;;;12.73;;
35550;SDS011;21655;46.056;13.616;2023-03-14T12:17:27;18.90;;;9.23;;
35550;SDS011;21655;46.056;13.616;2023-03-14T12:22:53;14.63;;;8.38;;
35550;SDS011;21655;46.056;13.616;2023-03-14T12:25:22;30.83;;;19.13;;
35550;SDS011;21655;46.056;13.616;2023-03-14T12:35:40;25.90;;;11.18;;
35550;SDS011;21655;46.056;13.616;2023-03-14T12:38:19;33.15;;;14.68;;
35550;SDS011;21655;46.056;13.616;2023-03-14T12:43:33;13.80;;;4.88;;
35550;SDS011;21655;46.056;13.616;2023-03-14T12:46:14;18.35;;;6.07;;
35550;SDS011;21655;46.056;13.616;2023-03-14T12:49:05;14.70;;;7.13;;
35550;SDS011;21655;46.056;13.616;2023-03-14T12:51:34;19.35;;;7.40;;
35550;SDS011;21655;46.056;13.616;2023-03-14T12:57:06;17.98;;;7.50;;
35550;SDS011;21655;46.056;13.616;2023-03-14T13:02:25;20.92;;;8.48;;
35550;SDS011;21655;46.056;13.616;2023-03-14T13:12:40;16.58;;;7.07;;
35550;SDS011;21655;46.056;13.616;2023-03-14T13:15:15;16.38;;;6.10;;
35550;SDS011;21655;46.056;13.616;2023-03-14T13:17:42;19.13;;;7.30;;
35550;SDS011;21655;46.056;13.616;2023-03-14T13:20:22;17.33;;;7.00;;
35550;SDS011;21655;46.056;13.616;2023-03-14T13:22:51;22.45;;;7.40;;
35550;SDS011;21655;46.056;13.616;2023-03-14T13:25:17;24.02;;;8.00;;
35550;SDS011;21655;46.056;13.616;2023-03-14T13:27:43;26.83;;;7.82;;
35550;SDS011;21655;46.056;13.616;2023-03-14T13:33:04;17.98;;;7.22;;
35550;SDS011;21655;46.056;13.616;2023-03-14T13:35:37;19.25;;;7.28;;
35550;SDS011;21655;46.056;13.616;2023-03-14T13:38:41;28.05;;;12.10;;
35550;SDS011;21655;46.056;13.616;2023-03-14T13:41:03;19.45;;;8.95;;
35550;SDS011;21655;46.056;13.616;2023-03-14T13:43:32;26.55;;;9.98;;
35550;SDS011;21655;46.056;13.616;2023-03-14T13:46:03;19.15;;;8.75;;
35550;SDS011;21655;46.056;13.616;2023-03-14T13:48:30;25.13;;;8.90;;
35550;SDS011;21655;46.056;13.616;2023-03-14T13:51:04;22.80;;;8.23;;
35550;SDS011;21655;46.056;13.616;2023-03-14T13:53:32;20.33;;;7.75;;
35550;SDS011;21655;46.056;13.616;2023-03-14T13:56:08;20.25;;;7.82;;
35550;SDS011;21655;46.056;13.616;2023-03-14T13:58:35;20.55;;;7.82;;
35550;SDS011;21655;46.056;13.616;2023-03-14T14:01:10;18.17;;;7.95;;
35550;SDS011;21655;46.056;13.616;2023-03-14T14:03:40;20.10;;;8.25;;
35550;SDS011;21655;46.056;13.616;2023-03-14T14:06:10;16.75;;;7.50;;
35550;SDS011;21655;46.056;13.616;2023-03-14T14:08:57;21.88;;;7.15;;
35550;SDS011;21655;46.056;13.616;2023-03-14T14:14:04;22.02;;;7.38;;
35550;SDS011;21655;46.056;13.616;2023-03-14T14:16:34;10.38;;;5.22;;
35550;SDS011;21655;46.056;13.616;2023-03-14T14:19:00;16.88;;;5.50;;
35550;SDS011;21655;46.056;13.616;2023-03-14T14:21:27;21.05;;;6.25;;
35550;SDS011;21655;46.056;13.616;2023-03-14T14:23:53;14.25;;;5.63;;
35550;SDS011;21655;46.056;13.616;2023-03-14T14:26:19;13.88;;;4.93;;
35550;SDS011;21655;46.056;13.616;2023-03-14T14:28:45;11.77;;;4.07;;
35550;SDS011;21655;46.056;13.616;2023-03-14T14:36:31;7.20;;;2.83;;
35550;SDS011;21655;46.056;13.616;2023-03-14T14:41:44;3.95;;;2.00;;
35550;SDS011;21655;46.056;13.616;2023-03-14T14:44:13;8.00;;;3.13;;
35550;SDS011;21655;46.056;13.616;2023-03-14T14:46:43;7.53;;;2.80;;
35550;SDS011;21655;46.056;13.616;2023-03-14T14:49:10;9.23;;;3.28;;
35550;SDS011;21655;46.056;13.616;2023-03-14T14:51:43;9.88;;;3.15;;
35550;SDS011;21655;46.056;13.616;2023-03-14T14:54:17;11.30;;;3.05;;
35550;SDS011;21655;46.056;13.616;2023-03-14T14:56:49;15.98;;;4.40;;
35550;SDS011;21655;46.056;13.616;2023-03-14T14:59:26;7.97;;;3.40;;
35550;SDS011;21655;46.056;13.616;2023-03-14T15:01:57;13.52;;;4.25;;
35550;SDS011;21655;46.056;13.616;2023-03-14T15:04:24;8.50;;;4.70;;
35550;SDS011;21655;46.056;13.616;2023-03-14T15:06:51;11.20;;;4.25;;
35550;SDS011;21655;46.056;13.616;2023-03-14T15:09:17;9.02;;;4.05;;
35550;SDS011;21655;46.056;13.616;2023-03-14T15:11:45;11.32;;;4.40;;
35550;SDS011;21655;46.056;13.616;2023-03-14T15:14:11;9.07;;;3.58;;
35550;SDS011;21655;46.056;13.616;2023-03-14T15:16:36;12.95;;;4.90;;
35550;SDS011;21655;46.056;13.616;2023-03-14T15:19:09;7.03;;;3.95;;
35550;SDS011;21655;46.056;13.616;2023-03-14T15:21:40;9.30;;;4.18;;
35550;SDS011;21655;46.056;13.616;2023-03-14T15:24:07;9.10;;;3.10;;
35550;SDS011;21655;46.056;13.616;2023-03-14T15:26:34;6.63;;;3.08;;
35550;SDS011;21655;46.056;13.616;2023-03-14T15:28:59;8.15;;;3.20;;
35550;SDS011;21655;46.056;13.616;2023-03-14T15:31:25;6.82;;;2.60;;
35550;SDS011;21655;46.056;13.616;2023-03-14T15:33:50;4.75;;;2.58;;
35550;SDS011;21655;46.056;13.616;2023-03-14T15:36:21;9.30;;;5.03;;
35550;SDS011;21655;46.056;13.616;2023-03-14T15:38:49;11.88;;;7.28;;
35550;SDS011;21655;46.056;13.616;2023-03-14T15:41:15;6.72;;;2.40;;
35550;SDS011;21655;46.056;13.616;2023-03-14T15:43:41;5.03;;;2.30;;
35550;SDS011;21655;46.056;13.616;2023-03-14T15:46:08;6.57;;;3.50;;
35550;SDS011;21655;46.056;13.616;2023-03-14T15:48:35;10.38;;;3.80;;